createdAt,value
2018-06-10T00:00:24.550Z,18.12
2018-06-10T00:02:52.693Z,16.92
2018-06-10T00:05:20.832Z,16.25
2018-06-10T00:07:49.026Z,16.70
2018-06-10T00:10:17.456Z,16.50
2018-06-10T00:12:45.601Z,16.23
2018-06-10T00:15:13.743Z,16.92
2018-06-10T00:17:42.641Z,15.73
2018-06-10T00:20:11.553Z,13.10
2018-06-10T00:22:39.677Z,15.00
2018-06-10T00:25:08.423Z,15.55
2018-06-10T00:27:36.546Z,15.57
2018-06-10T00:30:04.693Z,14.55
2018-06-10T00:32:34.230Z,16.00
2018-06-10T00:35:02.646Z,15.80
2018-06-10T00:37:32.317Z,16.10
2018-06-10T00:40:00.435Z,16.77
2018-06-10T00:42:28.581Z,16.05
2018-06-10T00:44:56.730Z,17.70
2018-06-10T00:47:24.927Z,16.20
2018-06-10T00:49:53.069Z,17.00
2018-06-10T00:52:21.200Z,17.27
2018-06-10T00:54:49.322Z,17.55
2018-06-10T00:57:20.691Z,18.55
2018-06-10T00:59:56.281Z,17.48
2018-06-10T01:02:24.410Z,19.02
2018-06-10T01:04:55.761Z,17.33
2018-06-10T01:07:27.518Z,16.55
2018-06-10T01:09:56.487Z,17.62
2018-06-10T01:12:24.693Z,18.83
2018-06-10T01:14:53.589Z,19.77
2018-06-10T01:17:24.517Z,19.20
2018-06-10T01:19:52.660Z,18.42
2018-06-10T01:22:21.756Z,19.15
2018-06-10T01:24:49.904Z,19.90
2018-06-10T01:27:22.555Z,20.33
2018-06-10T01:29:50.675Z,19.55
2018-06-10T01:32:19.546Z,22.33
2018-06-10T01:34:47.629Z,21.12
2018-06-10T01:37:17.628Z,20.65
2018-06-10T01:39:45.775Z,19.05
2018-06-10T01:42:14.678Z,18.58
2018-06-10T01:44:42.804Z,19.02
2018-06-10T01:47:11.863Z,19.80
2018-06-10T01:49:40.745Z,17.25
2018-06-10T01:52:08.881Z,16.05
2018-06-10T01:54:37.735Z,17.08
2018-06-10T01:57:13.004Z,18.80
2018-06-10T01:59:41.199Z,19.17
2018-06-10T02:02:09.920Z,20.20
2018-06-10T02:04:38.106Z,21.40
2018-06-10T02:07:09.319Z,21.90
2018-06-10T02:09:37.575Z,21.73
2018-06-10T02:12:05.734Z,22.67
2018-06-10T02:14:33.866Z,22.35
2018-06-10T02:17:02.001Z,20.37
2018-06-10T02:19:30.149Z,18.90
2018-06-10T02:21:58.278Z,20.30
2018-06-10T02:24:26.421Z,19.80
2018-06-10T02:26:55.517Z,18.05
2018-06-10T02:29:23.643Z,17.75
2018-06-10T02:31:51.773Z,17.83
2018-06-10T02:34:21.525Z,17.80
2018-06-10T02:36:49.670Z,17.95
2018-06-10T02:39:17.805Z,19.40
2018-06-10T02:41:45.914Z,19.55
2018-06-10T02:44:14.620Z,18.87
2018-06-10T02:46:42.760Z,19.87
2018-06-10T02:49:11.140Z,19.60
2018-06-10T02:51:40.037Z,20.73
2018-06-10T02:54:08.169Z,20.48
2018-06-10T02:56:36.290Z,19.83
2018-06-10T02:59:04.486Z,20.35
2018-06-10T03:01:33.558Z,21.08
2018-06-10T03:04:01.728Z,19.90
2018-06-10T03:06:31.651Z,21.50
2018-06-10T03:08:59.822Z,20.42
2018-06-10T03:11:29.861Z,17.90
2018-06-10T03:13:58.008Z,17.48
2018-06-10T03:16:26.173Z,18.15
2018-06-10T03:18:55.533Z,21.90
2018-06-10T03:21:23.650Z,22.80
2018-06-10T03:23:51.776Z,23.73
2018-06-10T03:26:23.781Z,26.42
2018-06-10T03:28:56.430Z,25.50
2018-06-10T03:31:24.572Z,27.52
2018-06-10T03:33:54.760Z,25.83
2018-06-10T03:36:23.653Z,28.55
2018-06-10T03:38:51.785Z,27.83
2018-06-10T03:41:19.914Z,29.05
2018-06-10T03:43:48.038Z,29.15
2018-06-10T03:46:20.020Z,29.55
2018-06-10T03:48:48.150Z,29.10
2018-06-10T03:51:17.204Z,29.37
2018-06-10T03:53:45.728Z,30.25
2018-06-10T03:56:29.317Z,28.62
2018-06-10T03:58:57.574Z,27.15
2018-06-10T04:01:25.696Z,26.50
2018-06-10T04:03:53.896Z,24.58
2018-06-10T04:06:22.017Z,27.62
2018-06-10T04:08:50.165Z,25.08
2018-06-10T04:11:18.286Z,24.95
2018-06-10T04:13:47.704Z,25.88
2018-06-10T04:16:16.008Z,24.92
2018-06-10T04:18:44.143Z,27.48
2018-06-10T04:21:12.669Z,27.70
2018-06-10T04:23:41.855Z,24.58
2018-06-10T04:26:10.062Z,26.17
2018-06-10T04:28:38.194Z,27.15
2018-06-10T04:31:06.324Z,25.50
2018-06-10T04:33:35.687Z,25.48
2018-06-10T04:36:05.820Z,24.00
2018-06-10T04:38:33.952Z,26.45
2018-06-10T04:41:02.155Z,27.87
2018-06-10T04:43:30.282Z,24.63
2018-06-10T04:45:58.528Z,25.33
2018-06-10T04:48:26.664Z,24.73
2018-06-10T04:50:54.799Z,23.30
2018-06-10T04:53:22.923Z,24.27
2018-06-10T04:55:51.060Z,23.42
2018-06-10T04:58:19.258Z,25.05
2018-06-10T05:00:47.386Z,22.45
2018-06-10T05:03:15.529Z,23.60
2018-06-10T05:05:43.723Z,22.97
2018-06-10T05:08:13.549Z,22.50
2018-06-10T05:10:41.705Z,22.67
2018-06-10T05:13:09.853Z,23.08
2018-06-10T05:15:38.046Z,25.10
2018-06-10T05:18:06.187Z,24.37
2018-06-10T05:20:34.318Z,21.80
2018-06-10T05:23:02.445Z,21.47
2018-06-10T05:25:36.574Z,22.80
2018-06-10T05:28:04.713Z,21.73
2018-06-10T05:30:32.847Z,24.40
2018-06-10T05:33:00.982Z,22.60
2018-06-10T05:35:34.475Z,23.47
2018-06-10T05:38:04.623Z,19.80
2018-06-10T05:40:33.539Z,23.58
2018-06-10T05:43:01.661Z,22.30
2018-06-10T05:48:23.137Z,19.80
2018-06-10T05:50:51.251Z,21.93
2018-06-10T05:53:19.376Z,21.43
2018-06-10T05:55:52.412Z,21.73
2018-06-10T05:58:21.254Z,19.87
2018-06-10T06:00:50.182Z,19.40
2018-06-10T06:03:19.090Z,21.13
2018-06-10T06:05:48.277Z,21.00
2018-06-10T06:08:17.366Z,20.57
2018-06-10T06:10:45.609Z,20.03
2018-06-10T06:13:17.175Z,19.20
2018-06-10T06:15:45.282Z,19.17
2018-06-10T06:18:16.144Z,18.33
2018-06-10T06:20:44.273Z,18.70
2018-06-10T06:23:12.563Z,17.87
2018-06-10T06:25:41.498Z,19.47
2018-06-10T06:28:10.911Z,18.80
2018-06-10T06:30:40.800Z,18.30
2018-06-10T06:33:09.353Z,17.90
2018-06-10T06:35:37.999Z,17.67
2018-06-10T06:38:06.972Z,18.87
2018-06-10T06:40:36.137Z,16.70
2018-06-10T06:43:05.283Z,15.60
2018-06-10T06:45:33.833Z,16.97
2018-06-10T06:48:02.011Z,17.70
2018-06-10T06:50:30.312Z,16.60
2018-06-10T06:52:58.430Z,17.40
2018-06-10T06:55:26.660Z,16.70
2018-06-10T06:57:54.823Z,17.10
2018-06-10T07:00:22.987Z,16.30
2018-06-10T07:02:51.131Z,16.60
2018-06-10T07:05:20.747Z,17.60
2018-06-10T07:07:48.912Z,16.20
2018-06-10T07:10:17.163Z,16.53
2018-06-10T07:12:45.289Z,15.50
2018-06-10T07:15:14.163Z,15.77
2018-06-10T07:17:42.373Z,17.40
2018-06-10T07:20:11.557Z,15.70
2018-06-10T07:22:39.694Z,16.03
2018-06-10T07:25:07.847Z,16.80
2018-06-10T07:27:37.599Z,15.20
2018-06-10T07:30:05.712Z,14.97
2018-06-10T07:32:34.608Z,14.10
2018-06-10T07:35:04.252Z,15.17
2018-06-10T07:37:32.389Z,14.80
2018-06-10T07:40:02.108Z,14.10
2018-06-10T07:42:30.997Z,15.10
2018-06-10T07:44:59.532Z,15.40
2018-06-10T07:47:27.662Z,13.30
2018-06-10T07:49:55.798Z,15.57
2018-06-10T07:52:23.920Z,13.00
2018-06-10T07:54:52.189Z,13.70
2018-06-10T07:57:22.221Z,13.70
2018-06-10T07:59:50.355Z,13.33
2018-06-10T08:02:20.436Z,13.93
2018-06-10T08:04:48.646Z,12.90
2018-06-10T08:07:17.737Z,14.50
2018-06-10T08:09:45.872Z,13.73
2018-06-10T08:12:13.989Z,14.03
2018-06-10T08:14:42.892Z,14.17
2018-06-10T08:17:12.654Z,13.53
2018-06-10T08:19:40.826Z,13.90
2018-06-10T08:22:09.501Z,13.23
2018-06-10T08:24:38.102Z,12.77
2018-06-10T08:27:06.232Z,12.33
2018-06-10T08:29:34.373Z,11.53
2018-06-10T08:32:02.772Z,11.47
2018-06-10T08:34:30.867Z,12.27
2018-06-10T08:37:00.123Z,11.43
2018-06-10T08:39:28.237Z,11.67
2018-06-10T08:41:56.375Z,11.90
2018-06-10T08:44:24.737Z,11.57
2018-06-10T08:46:52.816Z,12.27
2018-06-10T08:49:20.939Z,11.40
2018-06-10T08:51:49.123Z,10.50
2018-06-10T08:54:17.245Z,11.93
2018-06-10T08:56:46.334Z,10.50
2018-06-10T08:59:15.150Z,10.90
2018-06-10T09:01:45.056Z,12.03
2018-06-10T09:04:15.396Z,12.70
2018-06-10T09:06:44.294Z,13.00
2018-06-10T09:09:12.411Z,11.83
2018-06-10T09:11:40.549Z,13.37
2018-06-10T09:14:08.668Z,11.27
2018-06-10T09:16:36.831Z,11.60
2018-06-10T09:19:04.968Z,10.40
2018-06-10T09:21:33.093Z,10.47
2018-06-10T09:24:01.219Z,10.60
2018-06-10T09:26:32.429Z,11.90
2018-06-10T09:29:01.338Z,9.77
2018-06-10T09:31:30.250Z,10.70
2018-06-10T09:33:58.975Z,11.20
2018-06-10T09:36:28.614Z,10.60
2018-06-10T09:38:56.888Z,10.07
2018-06-10T09:41:25.019Z,10.00
2018-06-10T09:43:53.758Z,11.13
2018-06-10T09:46:21.903Z,10.07
2018-06-10T09:48:50.449Z,11.50
2018-06-10T09:51:19.298Z,11.07
2018-06-10T09:53:47.426Z,9.93
2018-06-10T09:56:15.629Z,10.80
2018-06-10T09:58:44.888Z,10.10
2018-06-10T10:01:13.781Z,10.80
2018-06-10T10:03:41.911Z,10.60
2018-06-10T10:06:13.846Z,9.67
2018-06-10T10:08:42.278Z,9.97
2018-06-10T10:11:11.235Z,10.60
2018-06-10T10:13:39.763Z,9.10
2018-06-10T10:16:09.027Z,9.27
2018-06-10T10:18:37.911Z,8.00
2018-06-10T10:21:06.038Z,7.67
2018-06-10T10:23:34.138Z,8.50
2018-06-10T10:26:02.331Z,8.87
2018-06-10T10:28:30.449Z,10.30
2018-06-10T10:30:58.659Z,8.83
2018-06-10T10:33:26.828Z,7.17
2018-06-10T10:35:55.018Z,9.00
2018-06-10T10:38:23.139Z,8.90
2018-06-10T10:40:51.348Z,8.03
2018-06-10T10:43:20.196Z,8.30
2018-06-10T10:45:48.830Z,8.90
2018-06-10T10:48:17.346Z,8.40
2018-06-10T10:50:46.464Z,9.07
2018-06-10T10:53:14.613Z,8.50
2018-06-10T10:55:42.855Z,10.30
2018-06-10T10:58:10.979Z,10.83
2018-06-10T11:00:40.903Z,10.93
2018-06-10T11:03:09.030Z,10.73
2018-06-10T11:05:37.194Z,10.40
2018-06-10T11:08:05.778Z,9.20
2018-06-10T11:10:33.906Z,9.33
2018-06-10T11:13:02.021Z,9.00
2018-06-10T11:15:30.138Z,9.37
2018-06-10T11:17:58.277Z,8.60
2018-06-10T11:20:26.380Z,9.20
2018-06-10T11:22:55.253Z,8.70
2018-06-10T11:25:24.219Z,9.80
2018-06-10T11:27:52.354Z,9.83
2018-06-10T11:30:20.482Z,9.20
2018-06-10T11:32:48.619Z,10.00
2018-06-10T11:35:16.742Z,9.60
2018-06-10T11:37:44.852Z,10.43
2018-06-10T11:40:13.203Z,10.40
2018-06-10T11:42:42.934Z,10.00
2018-06-10T11:45:12.287Z,10.20
2018-06-10T11:47:41.443Z,8.73
2018-06-10T11:50:09.603Z,8.33
2018-06-10T11:52:37.729Z,7.27
2018-06-10T11:55:05.864Z,8.00
2018-06-10T11:57:34.356Z,8.43
2018-06-10T12:00:02.471Z,7.83
2018-06-10T12:02:31.725Z,8.53
2018-06-10T12:04:59.823Z,8.80
2018-06-10T12:07:27.985Z,7.83
2018-06-10T12:09:56.095Z,8.97
2018-06-10T12:12:25.099Z,8.50
2018-06-10T12:14:53.212Z,8.70
2018-06-10T12:17:22.004Z,7.70
2018-06-10T12:19:50.123Z,7.87
2018-06-10T12:22:18.642Z,9.00
2018-06-10T12:24:46.755Z,7.93
2018-06-10T12:27:21.343Z,8.03
2018-06-10T12:29:49.719Z,7.87
2018-06-10T12:32:19.209Z,8.30
2018-06-10T12:34:47.332Z,9.03
2018-06-10T12:37:15.532Z,7.87
2018-06-10T12:39:43.664Z,8.57
2018-06-10T12:42:11.768Z,7.33
2018-06-10T12:44:40.662Z,8.30
2018-06-10T12:47:11.345Z,10.40
2018-06-10T12:49:39.472Z,10.10
2018-06-10T12:52:09.106Z,12.10
2018-06-10T12:54:37.803Z,11.67
2018-06-10T12:57:10.647Z,11.60
2018-06-10T12:59:38.827Z,11.03
2018-06-10T13:02:07.691Z,9.47
2018-06-10T13:04:36.786Z,9.50
2018-06-10T13:07:05.020Z,9.03
2018-06-10T13:09:33.133Z,8.80
2018-06-10T13:12:01.309Z,10.60
2018-06-10T13:14:29.452Z,9.37
2018-06-10T13:16:57.578Z,9.90
2018-06-10T13:19:25.675Z,8.00
2018-06-10T13:21:53.787Z,9.00
2018-06-10T13:24:21.892Z,8.63
2018-06-10T13:26:50.875Z,8.83
2018-06-10T13:29:19.002Z,9.60
2018-06-10T13:31:47.128Z,8.30
2018-06-10T13:34:15.249Z,8.17
2018-06-10T13:36:44.395Z,8.33
2018-06-10T13:39:12.520Z,8.40
2018-06-10T13:41:41.555Z,9.30
2018-06-10T13:44:10.062Z,9.40
2018-06-10T13:46:38.314Z,9.10
2018-06-10T13:49:06.435Z,7.53
2018-06-10T13:51:34.552Z,8.83
2018-06-10T13:54:03.468Z,8.20
2018-06-10T13:56:31.638Z,7.23
2018-06-10T13:58:59.758Z,8.47
2018-06-10T14:01:27.872Z,7.70
2018-06-10T14:03:56.092Z,8.80
2018-06-10T14:06:24.342Z,7.90
2018-06-10T14:08:52.476Z,7.70
2018-06-10T14:11:20.592Z,6.50
2018-06-10T14:13:49.465Z,8.70
2018-06-10T14:16:17.714Z,8.87
2018-06-10T14:18:45.833Z,7.77
2018-06-10T14:21:14.714Z,7.37
2018-06-10T14:23:42.820Z,8.70
2018-06-10T14:26:14.421Z,9.83
2018-06-10T14:28:43.570Z,8.60
2018-06-10T14:31:11.678Z,8.23
2018-06-10T14:33:39.853Z,7.90
2018-06-10T14:36:16.198Z,9.13
2018-06-10T14:38:44.397Z,9.17
2018-06-10T14:41:12.515Z,8.53
2018-06-10T14:43:40.661Z,8.13
2018-06-10T14:46:12.105Z,8.10
2018-06-10T14:48:40.615Z,8.00
2018-06-10T14:51:08.838Z,8.87
2018-06-10T14:53:37.653Z,9.03
2018-06-10T14:56:05.826Z,8.00
2018-06-10T14:58:33.926Z,8.70
2018-06-10T15:01:02.046Z,9.60
2018-06-10T15:03:30.166Z,9.10
2018-06-10T15:05:59.149Z,8.97
2018-06-10T15:08:27.262Z,8.57
2018-06-10T15:10:56.210Z,10.13
2018-06-10T15:13:24.320Z,7.90
2018-06-10T15:15:53.462Z,8.53
2018-06-10T15:18:21.598Z,8.67
2018-06-10T15:20:49.824Z,9.20
2018-06-10T15:23:17.952Z,10.47
2018-06-10T15:25:47.995Z,9.73
2018-06-10T15:28:16.111Z,9.50
2018-06-10T15:30:45.797Z,9.40
2018-06-10T15:33:13.952Z,9.10
2018-06-10T15:35:43.186Z,10.50
2018-06-10T15:38:11.321Z,9.33
2018-06-10T15:40:39.468Z,10.10
2018-06-10T15:43:07.638Z,9.60
2018-06-10T15:45:37.758Z,10.80
2018-06-10T15:48:05.876Z,9.70
2018-06-10T15:50:34.410Z,10.57
2018-06-10T15:53:04.114Z,10.30
2018-06-10T15:55:33.274Z,5.90
2018-06-10T15:58:01.396Z,5.23
2018-06-10T16:00:29.510Z,5.77
2018-06-10T16:02:57.762Z,5.87
2018-06-10T16:05:25.976Z,7.13
2018-06-10T16:07:54.090Z,7.70
2018-06-10T16:10:22.267Z,6.43
2018-06-10T16:12:51.426Z,9.47
2018-06-10T16:15:19.542Z,7.60
2018-06-10T16:17:47.665Z,5.83
2018-06-10T16:20:15.780Z,6.27
2018-06-10T16:22:43.904Z,5.33
2018-06-10T16:25:12.005Z,5.27
2018-06-10T16:27:40.207Z,3.77
2018-06-10T16:30:09.657Z,3.60
2018-06-10T16:32:37.773Z,3.83
2018-06-10T16:35:06.634Z,3.80
2018-06-10T16:37:35.537Z,3.00
2018-06-10T16:40:04.409Z,3.40
2018-06-10T16:42:32.538Z,3.30
2018-06-10T16:45:00.633Z,3.00
2018-06-10T16:47:30.080Z,3.60
2018-06-10T16:49:58.931Z,2.70
2018-06-10T16:52:27.036Z,3.00
2018-06-10T16:54:55.968Z,2.90
2018-06-10T16:57:24.117Z,3.60
2018-06-10T16:59:52.220Z,3.43
2018-06-10T17:02:21.262Z,3.20
2018-06-10T17:04:50.139Z,2.70
2018-06-10T17:07:18.410Z,3.20
2018-06-10T17:09:46.522Z,3.63
2018-06-10T17:12:14.661Z,2.80
2018-06-10T17:14:42.794Z,2.90
2018-06-10T17:17:11.508Z,3.93
2018-06-10T17:19:39.664Z,2.73
2018-06-10T17:22:07.779Z,4.10
2018-06-10T17:24:36.659Z,3.00
2018-06-10T17:27:04.832Z,3.13
2018-06-10T17:29:32.943Z,6.00
2018-06-10T17:32:01.114Z,3.50
2018-06-10T17:34:29.231Z,3.47
2018-06-10T17:36:57.345Z,3.97
2018-06-10T17:39:26.234Z,4.17
2018-06-10T17:41:54.356Z,3.87
2018-06-10T17:44:23.522Z,3.87
2018-06-10T17:46:52.467Z,3.23
2018-06-10T17:49:20.579Z,3.90
2018-06-10T17:51:48.684Z,4.40
2018-06-10T17:54:16.792Z,4.20
2018-06-10T17:56:44.981Z,3.80
2018-06-10T17:59:13.951Z,4.27
2018-06-10T18:01:42.000Z,4.40
2018-06-10T18:04:10.114Z,4.47
2018-06-10T18:06:39.116Z,5.27
2018-06-10T18:09:07.263Z,5.07
2018-06-10T18:11:35.382Z,4.70
2018-06-10T18:14:03.479Z,3.80
2018-06-10T18:16:31.615Z,5.90
2018-06-10T18:18:59.722Z,4.13
2018-06-10T18:21:27.846Z,4.70
2018-06-10T18:23:55.969Z,4.20
2018-06-10T18:26:24.082Z,4.77
2018-06-10T18:28:52.657Z,4.50
2018-06-10T18:31:21.252Z,4.60
2018-06-10T18:33:49.366Z,4.47
2018-06-10T18:36:18.011Z,4.50
2018-06-10T18:38:46.937Z,4.60
2018-06-10T18:41:15.498Z,4.00
2018-06-10T18:43:44.425Z,4.60
2018-06-10T18:46:13.365Z,4.80
2018-06-10T18:48:41.523Z,4.23
2018-06-10T18:51:09.670Z,5.13
2018-06-10T18:53:37.892Z,5.50
2018-06-10T18:56:06.093Z,5.90
2018-06-10T18:58:34.198Z,5.27
2018-06-10T19:01:02.418Z,5.40
2018-06-10T19:03:30.629Z,4.90
2018-06-10T19:05:59.857Z,5.57
2018-06-10T19:08:28.073Z,6.53
2018-06-10T19:10:56.964Z,6.03
2018-06-10T19:13:25.860Z,6.30
2018-06-10T19:16:04.014Z,7.20
2018-06-10T19:18:32.129Z,6.90
2018-06-10T19:21:00.322Z,7.00
2018-06-10T19:23:28.446Z,6.17
2018-06-10T19:25:56.867Z,6.50
2018-06-10T19:28:25.042Z,5.43
2018-06-10T19:30:54.058Z,6.20
2018-06-10T19:33:24.122Z,5.67
2018-06-10T19:35:53.491Z,5.50
2018-06-10T19:38:21.609Z,5.10
2018-06-10T19:40:49.734Z,5.83
2018-06-10T19:43:18.631Z,5.80
2018-06-10T19:45:47.762Z,6.57
2018-06-10T19:48:17.021Z,6.13
2018-06-10T19:50:45.179Z,5.57
2018-06-10T19:53:13.309Z,6.60
2018-06-10T19:55:41.478Z,5.80
2018-06-10T19:58:09.615Z,5.60
2018-06-10T20:00:37.733Z,5.80
2018-06-10T20:03:05.854Z,5.60
2018-06-10T20:05:39.292Z,6.03
2018-06-10T20:08:07.416Z,6.60
2018-06-10T20:10:35.524Z,6.40
2018-06-10T20:13:03.694Z,6.20
2018-06-10T20:15:31.832Z,5.73
2018-06-10T20:18:00.236Z,6.40
2018-06-10T20:20:28.402Z,5.77
2018-06-10T20:22:57.307Z,7.00
2018-06-10T20:25:25.505Z,7.47
2018-06-10T20:27:53.632Z,6.12
2018-06-10T20:30:21.818Z,6.53
2018-06-10T20:32:49.931Z,7.55
2018-06-10T20:35:18.115Z,7.13
2018-06-10T20:37:47.267Z,7.60
2018-06-10T20:40:16.192Z,7.40
2018-06-10T20:42:44.327Z,6.45
2018-06-10T20:45:12.458Z,6.70
2018-06-10T20:47:41.343Z,7.60
2018-06-10T20:50:10.760Z,7.97
2018-06-10T20:52:39.263Z,7.90
2018-06-10T20:55:08.036Z,7.78
2018-06-10T20:57:36.166Z,6.82
2018-06-10T21:00:05.313Z,6.75
2018-06-10T21:02:35.289Z,6.70
2018-06-10T21:05:03.413Z,7.53
2018-06-10T21:07:31.765Z,6.75
2018-06-10T21:10:00.304Z,7.93
2018-06-10T21:12:28.738Z,7.65
2018-06-10T21:14:56.903Z,8.45
2018-06-10T21:17:26.483Z,7.43
2018-06-10T21:19:54.648Z,7.95
2018-06-10T21:22:22.773Z,6.80
2018-06-10T21:24:51.292Z,8.15
2018-06-10T21:27:22.481Z,7.70
2018-06-10T21:29:51.375Z,6.93
2018-06-10T21:32:20.170Z,6.80
2018-06-10T21:34:50.768Z,8.45
2018-06-10T21:37:18.895Z,6.70
2018-06-10T21:42:10.654Z,8.65
2018-06-10T21:44:39.742Z,7.45
2018-06-10T21:47:07.936Z,7.70
2018-06-10T21:49:36.202Z,7.93
2018-06-10T21:52:04.401Z,7.70
2018-06-10T21:54:32.645Z,7.87
2018-06-10T21:57:03.480Z,7.40
2018-06-10T21:59:31.618Z,8.65
2018-06-10T22:02:00.483Z,6.97
2018-06-10T22:04:29.398Z,6.82
2018-06-10T22:06:58.356Z,7.75
2018-06-10T22:09:26.481Z,7.05
2018-06-10T22:11:54.598Z,7.22
2018-06-10T22:14:22.727Z,7.00
2018-06-10T22:16:50.860Z,6.45
2018-06-10T22:19:18.995Z,7.43
2018-06-10T22:21:48.991Z,6.62
2018-06-10T22:24:17.088Z,7.18
2018-06-10T22:26:45.500Z,7.78
2018-06-10T22:29:13.617Z,8.52
2018-06-10T22:31:41.722Z,7.93
2018-06-10T22:34:09.994Z,7.57
2018-06-10T22:36:39.040Z,7.12
2018-06-10T22:39:07.898Z,8.38
2018-06-10T22:41:36.028Z,7.10
2018-06-10T22:44:05.079Z,8.32
2018-06-10T22:46:33.224Z,7.15
2018-06-10T22:49:01.377Z,7.22
2018-06-10T22:51:29.549Z,6.62
2018-06-10T22:53:57.684Z,8.68
2018-06-10T22:56:26.583Z,6.50
2018-06-10T22:58:54.712Z,6.95
2018-06-10T23:01:23.300Z,7.32
2018-06-10T23:03:51.417Z,8.35
2018-06-10T23:06:19.644Z,8.27
2018-06-10T23:08:47.781Z,9.00
2018-06-10T23:11:16.498Z,8.95
2018-06-10T23:13:44.618Z,8.82
2018-06-10T23:16:13.579Z,9.15
2018-06-10T23:18:41.715Z,7.93
2018-06-10T23:21:09.859Z,7.22
2018-06-10T23:23:37.976Z,8.30
2018-06-10T23:26:06.097Z,7.50
2018-06-10T23:28:34.985Z,7.90
2018-06-10T23:31:03.873Z,7.70
2018-06-10T23:33:31.991Z,8.18
2018-06-10T23:36:00.198Z,8.13
2018-06-10T23:38:28.321Z,8.10
2018-06-10T23:40:56.439Z,7.32
2018-06-10T23:43:24.566Z,9.38
2018-06-10T23:45:53.724Z,9.05
2018-06-10T23:48:21.869Z,7.40
2018-06-10T23:50:49.991Z,8.60
2018-06-10T23:53:19.633Z,8.30
2018-06-10T23:55:48.873Z,9.65
2018-06-10T23:58:16.999Z,7.70
